Time;durP1;ratioP1;P1;durP2;ratioP2;P2;SDS_P1;SDS_P2;PMS_P1;PMS_P2;Temp;Humidity;BMP_temperature;BMP_pressure;BME280_temperature;BME280_humidity;BME280_pressure;Samples;Min_cycle;Max_cycle;Signal;HPM_P1;HPM_P2
2022/12/22 03:25:54;;;;;;;63.58;30.80;;;;;;;4.20;100.00;100154.31;1717353;81;28254;-76
2022/12/22 03:28:26;;;;;;;67.30;30.70;;;;;;;4.21;100.00;100145.39;1708062;81;25838;-76
2022/12/22 03:31:00;;;;;;;65.50;31.73;;;;;;;4.20;100.00;100149.02;1709125;81;25801;-76
2022/12/22 03:33:28;;;;;;;58.92;31.55;;;;;;;4.21;100.00;100155.99;1702299;83;25841;-76
2022/12/22 03:35:54;;;;;;;63.50;32.10;;;;;;;4.22;100.00;100139.56;1700759;82;25810;-76
2022/12/22 03:38:21;;;;;;;55.85;31.82;;;;;;;4.23;100.00;100139.92;1704312;82;27683;-76
2022/12/22 03:40:48;;;;;;;61.02;32.83;;;;;;;4.26;100.00;100134.28;1712983;83;25882;-76
2022/12/22 03:51:33;;;;;;;57.08;29.75;;;;;;;4.38;100.00;100124.60;1716864;82;27524;-77
2022/12/22 03:53:59;;;;;;;53.05;28.47;;;;;;;4.39;100.00;100124.92;1738685;80;25790;-77
2022/12/22 03:56:26;;;;;;;58.33;28.90;;;;;;;4.43;99.96;100125.42;1725941;80;25739;-76
2022/12/22 03:58:53;;;;;;;50.78;28.85;;;;;;;4.44;99.75;100125.77;1718887;81;26214;-77
2022/12/22 04:01:19;;;;;;;53.05;28.55;;;;;;;4.45;99.64;100120.79;1720098;81;25761;-77
2022/12/22 04:03:47;;;;;;;55.85;30.62;;;;;;;4.45;99.49;100110.18;1704752;82;27451;-76
2022/12/22 04:06:14;;;;;;;53.65;27.95;;;;;;;4.44;99.43;100116.00;1724480;82;25734;-77
2022/12/22 04:08:40;;;;;;;59.45;29.82;;;;;;;4.37;99.11;100114.97;1767273;80;25782;-76
2022/12/22 04:13:55;;;;;;;55.23;30.35;;;;;;;4.26;98.71;100108.61;1737122;80;25744;-77
2022/12/22 04:16:22;;;;;;;61.98;32.60;;;;;;;4.19;98.77;100110.75;1765438;80;28254;-76
2022/12/22 04:18:48;;;;;;;59.45;31.93;;;;;;;4.18;99.08;100109.07;1758437;80;25790;-76
2022/12/22 04:21:15;;;;;;;56.08;30.57;;;;;;;4.20;99.24;100109.73;1770488;80;25592;-77
2022/12/22 04:23:41;;;;;;;54.77;30.77;;;;;;;4.22;99.31;100113.06;1745435;80;25794;-77
2022/12/22 04:26:08;;;;;;;57.48;31.20;;;;;;;4.24;99.28;100110.59;1737398;80;25857;-77
2022/12/22 04:28:35;;;;;;;53.63;29.15;;;;;;;4.27;99.31;100104.15;1762727;80;28322;-77
2022/12/22 04:31:01;;;;;;;57.00;29.65;;;;;;;4.26;99.14;100096.69;1756313;80;25720;-76
2022/12/22 04:33:27;;;;;;;55.83;29.63;;;;;;;4.27;99.08;100096.20;1736087;80;25715;-77
2022/12/22 04:35:53;;;;;;;51.73;28.32;;;;;;;4.30;99.12;100101.20;1747052;80;25805;-77
2022/12/22 04:38:20;;;;;;;58.23;30.35;;;;;;;4.31;99.14;100093.56;1757112;80;26291;-77
2022/12/22 04:40:46;;;;;;;51.95;28.85;;;;;;;4.32;99.11;100080.14;1764878;80;27440;-76
2022/12/22 04:43:12;;;;;;;49.95;27.70;;;;;;;4.33;98.99;100075.67;1758480;80;25710;-77
2022/12/22 04:45:38;;;;;;;50.25;27.05;;;;;;;4.33;99.00;100078.33;1757083;80;26445;-76
2022/12/22 04:48:05;;;;;;;52.70;28.02;;;;;;;4.33;99.01;100071.70;1746783;81;25730;-77
2022/12/22 04:50:31;;;;;;;50.80;27.25;;;;;;;4.33;99.03;100077.00;1755058;80;25275;-77
2022/12/22 04:52:58;;;;;;;59.15;29.57;;;;;;;4.36;99.08;100083.32;1752766;80;28263;-77
2022/12/22 04:55:24;;;;;;;52.55;29.45;;;;;;;4.37;99.07;100083.16;1760233;80;25878;-77
2022/12/22 04:57:50;;;;;;;49.20;26.75;;;;;;;4.37;99.03;100083.16;1742255;81;25745;-77
2022/12/22 05:00:18;;;;;;;55.60;29.30;;;;;;;4.38;98.98;100080.85;1748667;80;26233;-76
2022/12/22 05:02:44;;;;;;;53.68;29.77;;;;;;;4.38;98.94;100082.18;1720628;81;25852;-76
2022/12/22 05:05:11;;;;;;;51.60;29.23;;;;;;;4.35;98.85;100085.63;1713428;81;27575;-77
2022/12/22 05:07:37;;;;;;;54.13;30.52;;;;;;;4.34;98.87;100084.78;1690069;82;26211;-77
2022/12/22 05:10:05;;;;;;;56.83;30.62;;;;;;;4.33;98.92;100088.92;1733287;81;26392;-77
2022/12/22 05:15:16;;;;;;;56.30;30.85;;;;;;;4.35;98.99;100082.97;1706777;83;25976;-76
2022/12/22 05:17:42;;;;;;;55.50;29.75;;;;;;;4.35;98.96;100081.64;1700948;82;27453;-76
2022/12/22 05:20:09;;;;;;;53.60;29.42;;;;;;;4.35;98.88;100073.69;1755362;80;25771;-76
2022/12/22 05:22:35;;;;;;;58.13;31.95;;;;;;;4.34;98.84;100071.53;1762307;80;25759;-76
2022/12/22 05:25:02;;;;;;;58.25;32.63;;;;;;;4.34;98.99;100068.06;1743710;80;26501;-77
2022/12/22 05:27:28;;;;;;;64.97;31.57;;;;;;;4.36;99.14;100079.34;1744466;80;25797;-77
2022/12/22 05:29:54;;;;;;;61.00;33.75;;;;;;;4.36;99.16;100084.13;1743275;80;27506;-76
2022/12/22 05:32:21;;;;;;;57.03;33.23;;;;;;;4.39;99.15;100079.84;1749286;80;25764;-76
2022/12/22 05:34:47;;;;;;;56.08;30.75;;;;;;;4.42;99.17;100077.37;1745077;80;25799;-76
2022/12/22 05:37:13;;;;;;;52.15;30.55;;;;;;;4.42;99.03;100070.75;1719088;81;26378;-76
2022/12/22 05:39:39;;;;;;;51.95;29.90;;;;;;;4.44;99.00;100079.37;1716174;81;25928;-76
2022/12/22 05:42:06;;;;;;;51.10;29.18;;;;;;;4.47;98.96;100083.03;1700862;82;27477;-76
2022/12/22 05:44:32;;;;;;;52.62;30.25;;;;;;;4.48;98.90;100076.23;1752039;80;25706;-76
2022/12/22 05:46:58;;;;;;;53.33;29.85;;;;;;;4.48;98.83;100084.69;1733136;80;26391;-77
2022/12/22 05:49:24;;;;;;;51.50;30.82;;;;;;;4.49;98.82;100086.36;1747227;80;26057;-76
2022/12/22 05:51:53;;;;;;;52.80;30.05;;;;;;;4.50;98.82;100091.98;1750277;80;25775;-77
2022/12/22 05:54:19;;;;;;;52.53;30.70;;;;;;;4.52;98.76;100087.34;1748652;80;27483;-77
2022/12/22 05:56:45;;;;;;;54.75;31.10;;;;;;;4.53;98.74;100082.39;1745724;80;26419;-76
2022/12/22 05:59:12;;;;;;;53.75;32.55;;;;;;;4.53;98.75;100085.85;1741169;81;26550;-76
2022/12/22 06:01:38;;;;;;;54.35;30.90;;;;;;;4.55;98.78;100089.20;1743248;80;26200;-77
2022/12/22 06:04:04;;;;;;;50.30;32.05;;;;;;;4.57;98.71;100089.03;1752586;80;25819;-77
2022/12/22 06:06:31;;;;;;;55.63;30.72;;;;;;;4.56;98.64;100088.19;1714351;81;27476;-76
2022/12/22 06:08:57;;;;;;;52.33;30.30;;;;;;;4.57;98.58;100091.69;1690338;83;26193;-77
2022/12/22 06:11:23;;;;;;;47.98;27.98;;;;;;;4.56;98.57;100101.45;1684084;83;26185;-76
2022/12/22 06:13:50;;;;;;;55.83;28.05;;;;;;;4.53;98.60;100097.78;1716978;81;25846;-76
2022/12/22 06:16:18;;;;;;;46.35;27.90;;;;;;;4.50;98.70;100098.13;1675858;83;25324;-77
2022/12/22 06:18:44;;;;;;;43.05;27.40;;;;;;;4.50;98.85;100096.80;1704839;82;27437;-76
2022/12/22 06:21:10;;;;;;;46.13;26.95;;;;;;;4.49;98.94;100095.13;1684592;83;25830;-77
2022/12/22 06:23:37;;;;;;;45.23;27.25;;;;;;;4.50;99.05;100096.80;1697431;82;26123;-77
2022/12/22 06:26:03;;;;;;;48.10;26.40;;;;;;;4.50;99.13;100098.61;1741154;81;26073;-76
2022/12/22 06:28:30;;;;;;;45.28;27.62;;;;;;;4.49;99.15;100099.09;1735817;80;25976;-76
2022/12/22 06:30:56;;;;;;;40.60;24.57;;;;;;;4.47;99.13;100102.93;1737692;80;28289;-76
2022/12/22 06:33:23;;;;;;;38.98;23.55;;;;;;;4.45;99.21;100103.55;1733990;80;25734;-76
2022/12/22 06:35:49;;;;;;;48.63;27.42;;;;;;;4.43;99.27;100097.58;1732857;80;25769;-76
2022/12/22 06:38:15;;;;;;;43.87;26.68;;;;;;;4.40;99.30;100093.45;1738329;80;26228;-77
2022/12/22 06:40:41;;;;;;;41.45;24.92;;;;;;;4.38;99.32;100091.45;1731185;80;26460;-77
2022/12/22 06:43:08;;;;;;;46.10;26.52;;;;;;;4.40;99.48;100091.29;1727586;80;27444;-77
2022/12/22 06:45:40;;;;;;;46.65;27.15;;;;;;;4.39;99.48;100088.28;1745059;80;25849;-76
2022/12/22 06:48:09;;;;;;;42.33;25.17;;;;;;;4.40;99.63;100093.45;1746843;80;26397;-76
2022/12/22 06:50:35;;;;;;;40.95;25.35;;;;;;;4.41;99.64;100087.63;1718367;82;26342;-76
2022/12/22 06:53:03;;;;;;;42.10;24.47;;;;;;;4.41;99.52;100095.09;1744342;80;25887;-77
2022/12/22 06:55:29;;;;;;;43.58;25.02;;;;;;;4.42;99.61;100099.91;1743857;81;27537;-76
2022/12/22 06:57:55;;;;;;;41.70;24.82;;;;;;;4.42;99.61;100090.14;1708550;82;26056;-76
2022/12/22 07:00:22;;;;;;;41.48;25.12;;;;;;;4.41;99.56;100091.61;1720559;82;25745;-76
2022/12/22 07:02:48;;;;;;;47.05;26.30;;;;;;;4.38;99.60;100083.98;1693329;83;25782;-77
2022/12/22 07:05:16;;;;;;;44.40;26.17;;;;;;;4.39;99.65;100077.19;1745081;80;25943;-76
2022/12/22 07:07:42;;;;;;;46.18;26.85;;;;;;;4.39;99.62;100075.86;1715116;82;27451;-76
2022/12/22 07:10:09;;;;;;;46.20;26.02;;;;;;;4.38;99.63;100074.22;1723445;81;26027;-76
2022/12/22 07:12:36;;;;;;;47.17;26.87;;;;;;;4.40;99.67;100073.56;1719747;81;25879;-76
2022/12/22 07:15:03;;;;;;;42.43;25.02;;;;;;;4.43;99.63;100076.36;1712197;82;25829;-77
2022/12/22 07:17:29;;;;;;;43.63;26.07;;;;;;;4.44;99.50;100088.16;1746746;80;25920;-76
2022/12/22 07:19:56;;;;;;;48.42;26.42;;;;;;;4.45;99.43;100084.50;1747127;81;27609;-76
2022/12/22 07:22:22;;;;;;;44.50;26.10;;;;;;;4.44;99.39;100071.41;1747495;80;25750;-76
2022/12/22 07:24:49;;;;;;;41.08;24.02;;;;;;;4.46;99.40;100082.20;1749686;80;26406;-76
2022/12/22 07:27:15;;;;;;;41.13;24.12;;;;;;;4.48;99.34;100072.75;1739852;81;26297;-77
2022/12/22 07:29:41;;;;;;;40.48;24.32;;;;;;;4.49;99.39;100073.09;1717422;82;25842;-76
2022/12/22 07:32:08;;;;;;;41.13;24.60;;;;;;;4.51;99.35;100076.42;1708400;82;28272;-76
2022/12/22 07:34:34;;;;;;;45.03;27.13;;;;;;;4.51;99.23;100074.58;1739905;80;25787;-76
2022/12/22 07:37:00;;;;;;;41.70;24.63;;;;;;;4.51;99.24;100069.27;1740931;80;25761;-76
2022/12/22 07:39:26;;;;;;;42.27;25.92;;;;;;;4.52;99.24;100061.66;1735566;80;25726;-76
2022/12/22 07:44:38;;;;;;;39.88;23.67;;;;;;;4.54;99.27;100070.28;1747348;80;27516;-76
2022/12/22 07:47:04;;;;;;;43.35;25.27;;;;;;;4.57;99.31;100051.41;1749158;80;26538;-77
2022/12/22 07:52:15;;;;;;;95.62;46.45;;;;;;;4.62;99.27;100045.11;1751793;80;25828;-80
2022/12/22 07:54:41;;;;;;;111.47;54.58;;;;;;;4.63;99.24;100051.25;1757193;80;25752;-76
2022/12/22 07:57:07;;;;;;;89.30;44.80;;;;;;;4.67;99.28;100044.63;1747079;81;27504;-76
2022/12/22 07:59:35;;;;;;;70.78;36.85;;;;;;;4.71;99.25;100039.32;1750654;80;25867;-76
2022/12/22 08:02:02;;;;;;;59.03;33.83;;;;;;;4.75;99.25;100042.50;1748607;80;26372;-76
2022/12/22 08:04:28;;;;;;;48.87;29.05;;;;;;;4.78;99.22;100045.64;1745493;81;25818;-76
2022/12/22 08:06:54;;;;;;;40.85;26.17;;;;;;;4.81;99.14;100044.00;1741057;80;25805;-76
2022/12/22 08:09:21;;;;;;;42.05;24.07;;;;;;;4.82;99.05;100040.34;1739859;80;27525;-76
2022/12/22 08:11:49;;;;;;;41.68;25.43;;;;;;;4.86;99.13;100043.48;1747065;81;25800;-76
2022/12/22 08:14:15;;;;;;;45.88;27.32;;;;;;;4.87;98.98;100051.80;1751250;80;26509;-76
2022/12/22 08:16:41;;;;;;;42.55;25.40;;;;;;;4.88;99.01;100050.30;1747410;80;25848;-77
2022/12/22 08:19:08;;;;;;;50.05;27.90;;;;;;;4.91;98.92;100038.53;1753903;80;25235;-89
2022/12/22 08:21:34;;;;;;;46.35;27.58;;;;;;;4.93;98.99;100039.20;1743304;81;27465;-92
2022/12/22 08:24:00;;;;;;;50.52;28.55;;;;;;;4.94;99.03;100035.04;1746610;80;25617;-89
2022/12/22 08:26:37;;;;;;;45.05;26.85;;;;;;;4.97;99.06;100037.37;1758586;80;25701;-83
2022/12/22 08:29:23;;;;;;;52.85;27.93;;;;;;;5.01;99.09;100033.88;1750605;80;25980;-78
2022/12/22 08:31:49;;;;;;;46.68;27.40;;;;;;;5.01;99.00;100033.39;1721113;83;26270;-77
2022/12/22 08:34:16;;;;;;;46.85;26.97;;;;;;;5.04;99.08;100036.22;1723114;82;26890;-77
2022/12/22 08:36:54;;;;;;;43.58;24.77;;;;;;;5.05;99.04;100033.88;1687800;82;25782;-77
2022/12/22 08:39:22;;;;;;;43.83;26.85;;;;;;;5.06;99.04;100043.03;1703514;82;25813;-77
2022/12/22 08:41:49;;;;;;;41.40;25.57;;;;;;;5.09;99.32;100039.22;1727501;81;25782;-77
2022/12/22 08:44:22;;;;;;;51.55;34.55;;;;;;;5.12;99.28;100037.06;1722929;81;25770;-78
2022/12/22 08:46:49;;;;;;;56.40;32.05;;;;;;;5.13;99.20;100039.22;1693780;83;27491;-77
2022/12/22 08:49:16;;;;;;;50.67;30.00;;;;;;;5.14;99.17;100031.08;1695594;83;26390;-78
2022/12/22 08:51:44;;;;;;;53.50;29.70;;;;;;;5.17;99.25;100036.56;1716521;81;26373;-78
2022/12/22 08:54:11;;;;;;;140.12;65.83;;;;;;;5.18;99.21;100029.75;1716380;81;25828;-80
2022/12/22 08:56:37;;;;;;;123.40;63.60;;;;;;;5.22;99.38;100035.55;1725414;81;26069;-80
2022/12/22 08:59:06;;;;;;;112.57;62.27;;;;;;;5.25;99.38;100024.61;1696518;83;27445;-81
2022/12/22 09:01:36;;;;;;;229.32;105.78;;;;;;;5.28;99.37;100034.39;1725229;81;26078;-77
2022/12/22 09:04:05;;;;;;;257.48;119.95;;;;;;;5.31;99.41;100030.58;1714782;81;25812;-76
2022/12/22 09:06:32;;;;;;;453.10;234.80;;;;;;;5.31;99.30;100020.79;1700676;83;25824;-76
2022/12/22 09:09:02;;;;;;;205.90;119.40;;;;;;;5.31;99.18;100014.64;1698259;83;25771;-87
2022/12/22 09:11:29;;;;;;;151.37;97.17;;;;;;;5.31;99.15;100004.02;1716284;82;27639;-83
2022/12/22 09:13:59;;;;;;;89.07;44.13;;;;;;;5.32;99.18;100001.71;1732567;81;25839;-86
2022/12/22 09:16:28;;;;;;;58.68;36.42;;;;;;;5.34;99.24;99991.26;1696994;83;25801;-75
2022/12/22 09:18:55;;;;;;;56.58;38.13;;;;;;;5.37;99.29;99994.05;1717749;83;25818;-75
2022/12/22 09:21:24;;;;;;;48.78;31.02;;;;;;;5.38;99.25;99988.59;1697719;82;26472;-75
2022/12/22 09:23:51;;;;;;;80.70;49.23;;;;;;;5.40;99.20;99993.23;1718170;81;27472;-82
2022/12/22 09:26:21;;;;;;;47.25;29.48;;;;;;;5.41;99.24;99981.59;1703715;82;25761;-88
2022/12/22 09:28:47;;;;;;;67.15;39.73;;;;;;;5.44;99.34;99983.09;1722238;81;25793;-82
2022/12/22 09:31:14;;;;;;;80.50;45.78;;;;;;;5.47;99.44;99980.92;1703961;82;25768;-89
2022/12/22 09:33:40;;;;;;;60.28;38.48;;;;;;;5.52;99.54;99980.94;1733932;81;25854;-84
2022/12/22 09:36:11;;;;;;;57.35;34.75;;;;;;;5.54;99.47;99982.40;1703866;82;28275;-74
2022/12/22 09:38:39;;;;;;;;;;;;;;;5.59;99.51;99978.75;1736489;80;26531;-75
2022/12/22 09:41:19;;;;;;;48.08;29.23;;;;;;;5.61;99.50;99968.77;1737847;80;26483;-74
2022/12/22 09:43:46;;;;;;;48.23;29.85;;;;;;;5.61;99.18;99970.59;1709920;81;25836;-74
2022/12/22 09:46:26;;;;;;;48.50;29.23;;;;;;;5.58;99.01;99970.44;1687662;83;26056;-75
2022/12/22 09:48:53;;;;;;;47.53;28.10;;;;;;;5.59;99.20;99961.48;1714092;82;27468;-75
2022/12/22 09:51:21;;;;;;;52.25;33.38;;;;;;;5.61;99.26;99963.46;1712613;82;25847;-87
2022/12/22 09:53:57;;;;;;;49.05;30.60;;;;;;;5.65;99.35;99951.49;1708878;82;25832;-74
2022/12/22 09:56:27;;;;;;;56.35;32.48;;;;;;;5.69;99.48;99953.33;1720631;82;26561;-74
2022/12/22 09:58:53;;;;;;;56.85;35.33;;;;;;;5.72;99.50;99954.30;1715591;82;26495;-74
2022/12/22 10:01:47;;;;;;;54.53;31.77;;;;;;;5.75;99.46;99944.14;1716600;82;27529;-84
2022/12/22 10:04:46;;;;;;;54.70;28.62;;;;;;;5.78;99.37;99941.16;1748068;80;25739;-73
2022/12/22 10:07:21;;;;;;;58.80;36.23;;;;;;;5.81;99.26;99942.15;1761327;80;25755;-85
2022/12/22 10:09:47;;;;;;;52.15;29.18;;;;;;;5.85;99.17;99932.86;1745669;80;25785;-74
2022/12/22 10:12:18;;;;;;;53.15;28.77;;;;;;;5.86;99.21;99937.16;1746636;80;25483;-75
2022/12/22 10:14:48;;;;;;;53.48;36.00;;;;;;;5.91;99.55;99932.16;1761322;80;27469;-83
2022/12/22 10:17:23;;;;;;;53.13;36.75;;;;;;;5.96;99.27;99931.16;1751638;80;25854;-81
2022/12/22 10:19:53;;;;;;;48.17;29.23;;;;;;;5.98;99.12;99915.86;1695568;83;25909;-74
2022/12/22 10:22:27;;;;;;;50.83;30.43;;;;;;;5.99;99.08;99912.67;1709943;82;25771;-82
2022/12/22 10:24:54;;;;;;;51.05;31.60;;;;;;;6.01;98.87;99910.17;1694899;82;25831;-83
2022/12/22 10:27:24;;;;;;;47.33;28.05;;;;;;;6.02;98.86;99911.84;1702395;82;26919;-87
2022/12/22 10:29:51;;;;;;;51.40;32.20;;;;;;;6.05;98.98;99905.36;1703468;83;25865;-82
2022/12/22 10:32:20;;;;;;;84.35;55.38;;;;;;;6.07;98.78;99907.34;1703100;83;25862;-84
2022/12/22 10:35:03;;;;;;;52.17;31.35;;;;;;;6.07;98.67;99892.19;1701282;82;25921;-80
2022/12/22 10:37:36;;;;;;;59.15;36.70;;;;;;;6.07;98.75;99885.55;1723287;81;25925;-74
2022/12/22 10:40:22;;;;;;;49.35;30.25;;;;;;;6.08;98.60;99875.25;1695880;82;28849;-74
2022/12/22 10:42:53;;;;;;;44.77;25.65;;;;;;;6.11;98.65;99878.07;1690802;84;26491;-72
2022/12/22 10:45:23;;;;;;;51.60;28.23;;;;;;;6.13;98.62;99876.06;1722479;82;25825;-73
2022/12/22 10:47:53;;;;;;;45.85;26.85;;;;;;;6.12;98.64;99867.25;1724018;81;26611;-74
2022/12/22 10:50:21;;;;;;;53.70;29.98;;;;;;;6.13;98.61;99865.42;1685988;83;25803;-76
2022/12/22 10:52:54;;;;;;;49.10;27.95;;;;;;;6.14;98.68;99865.73;1695061;82;28250;-82
2022/12/22 10:55:28;;;;;;;53.45;32.75;;;;;;;6.11;98.50;99860.78;1741155;80;25305;-74
2022/12/22 10:58:11;;;;;;;49.10;29.72;;;;;;;6.13;98.51;99862.77;1731773;80;25789;-79
2022/12/22 11:00:38;;;;;;;49.38;28.32;;;;;;;6.12;98.46;99849.13;1736936;80;27279;-84
2022/12/22 11:03:06;;;;;;;44.65;25.08;;;;;;;6.11;98.40;99845.67;1756528;80;26423;-85
2022/12/22 11:05:33;;;;;;;51.98;30.55;;;;;;;6.11;98.38;99847.49;1744690;80;28585;-87
2022/12/22 11:08:14;;;;;;;49.60;27.95;;;;;;;6.09;98.39;99832.22;1747908;80;26022;-84
2022/12/22 11:11:01;;;;;;;58.00;34.83;;;;;;;6.08;98.42;99839.36;1737263;80;25778;-79
2022/12/22 11:13:54;;;;;;;54.75;31.52;;;;;;;6.09;98.49;99820.26;1749770;80;26911;-79
2022/12/22 11:16:41;;;;;;;48.90;28.02;;;;;;;6.08;98.42;99822.58;1748985;80;25873;-81
2022/12/22 11:19:42;;;;;;;49.90;28.10;;;;;;;6.08;98.45;99822.08;1732169;80;28385;-79
2022/12/22 11:22:29;;;;;;;;;;;;;;;6.08;98.61;99819.42;1757466;80;25785;-78
2022/12/22 11:25:13;;;;;;;48.90;28.07;;;;;;;6.11;98.58;99824.89;1740188;80;25727;-78
2022/12/22 11:28:14;;;;;;;46.88;27.10;;;;;;;6.10;98.69;99816.58;1746174;80;25816;-77
2022/12/22 11:31:13;;;;;;;50.05;26.85;;;;;;;6.10;98.53;99816.08;1754163;80;25775;-78
2022/12/22 11:33:54;;;;;;;46.40;26.55;;;;;;;6.08;98.35;99804.80;1751522;80;28538;-86
2022/12/22 11:36:24;;;;;;;;;;;;;;;6.05;98.31;99786.53;1755060;80;25337;-85
2022/12/22 11:39:13;;;;;;;47.65;27.82;;;;;;;6.07;98.47;99791.69;1757043;80;25832;-82
2022/12/22 11:42:03;;;;;;;51.70;27.77;;;;;;;6.05;98.56;99793.70;1758191;81;25756;-80
2022/12/22 11:44:50;;;;;;;45.27;26.80;;;;;;;6.03;98.58;99785.88;1745811;80;25875;-82
2022/12/22 11:47:42;;;;;;;56.48;28.40;;;;;;;6.05;98.68;99790.52;1743405;80;27497;-85
2022/12/22 11:50:37;;;;;;;47.55;26.87;;;;;;;6.06;98.75;99787.36;1757337;80;26474;-81
2022/12/22 11:53:37;;;;;;;47.30;27.40;;;;;;;6.08;98.70;99796.82;1749199;81;25884;-75
2022/12/22 11:56:20;;;;;;;50.23;28.62;;;;;;;6.06;98.75;99796.17;1752055;80;26399;-75
2022/12/22 11:59:01;;;;;;;47.00;27.17;;;;;;;6.08;98.62;99786.68;1763686;80;25748;-75
2022/12/22 12:02:16;;;;;;;47.85;27.62;;;;;;;6.06;98.46;99784.70;1722665;81;27629;-75
2022/12/22 12:05:28;;;;;;;49.33;26.37;;;;;;;6.03;98.44;99774.45;1759396;80;26418;-75
2022/12/22 12:08:15;;;;;;;52.62;28.70;;;;;;;6.01;98.42;99778.59;1753826;80;26037;-82
2022/12/22 12:10:58;;;;;;;51.20;28.85;;;;;;;5.97;98.36;99769.81;1754057;80;26519;-81
2022/12/22 12:13:45;;;;;;;51.02;29.07;;;;;;;5.95;98.40;99781.96;1731909;81;26487;-82
2022/12/22 12:16:23;;;;;;;69.77;38.88;;;;;;;5.94;98.35;99771.52;1735975;80;27501;-80
2022/12/22 12:19:23;;;;;;;59.48;31.52;;;;;;;5.92;98.16;99769.54;1752904;80;26912;-76
2022/12/22 12:22:03;;;;;;;54.75;31.95;;;;;;;5.92;98.20;99774.85;1752002;80;26389;-76
2022/12/22 12:24:44;;;;;;;49.73;28.52;;;;;;;5.87;97.73;99771.39;1717050;81;25860;-76
2022/12/22 12:27:42;;;;;;;50.28;27.75;;;;;;;5.83;97.53;99767.90;1710450;81;25858;-76
2022/12/22 12:30:15;;;;;;;51.05;30.10;;;;;;;5.77;97.21;99769.45;1719314;81;27447;-76
2022/12/22 12:32:50;;;;;;;52.70;29.70;;;;;;;5.71;97.15;99761.34;1710295;81;26475;-75
2022/12/22 12:35:49;;;;;;;48.00;28.60;;;;;;;5.67;97.13;99754.70;1706511;81;25728;-76
2022/12/22 12:38:30;;;;;;;54.53;29.52;;;;;;;5.64;97.18;99757.23;1697897;81;26769;-76
2022/12/22 12:41:21;;;;;;;;;;;;;;;5.61;97.36;99765.55;1715472;81;25987;-76
2022/12/22 12:43:51;;;;;;;49.50;28.52;;;;;;;5.59;97.35;99768.88;1718255;81;27465;-80
2022/12/22 12:46:43;;;;;;;48.73;29.12;;;;;;;5.55;97.44;99762.27;1703902;81;25751;-83
2022/12/22 12:49:37;;;;;;;41.85;24.92;;;;;;;5.53;97.37;99756.30;1711580;82;26436;-87
2022/12/22 12:52:07;;;;;;;45.08;27.22;;;;;;;5.45;97.06;99757.16;1711623;82;25863;-78
2022/12/22 12:54:47;;;;;;;50.60;27.67;;;;;;;5.41;97.19;99747.05;1709111;83;25653;-87
2022/12/22 12:57:33;;;;;;;44.95;25.80;;;;;;;5.37;97.06;99746.59;1721150;81;27695;-83
2022/12/22 12:59:59;;;;;;;46.70;26.52;;;;;;;5.32;97.05;99734.84;1682561;83;26397;-74
2022/12/22 13:02:30;;;;;;;51.95;30.12;;;;;;;5.31;97.29;99744.63;1678773;83;25804;-74
2022/12/22 13:05:37;;;;;;;56.68;31.57;;;;;;;5.31;97.38;99734.02;1701073;82;26015;-74
2022/12/22 13:08:20;;;;;;;55.65;32.75;;;;;;;5.30;97.29;99744.81;1746928;80;25963;-74
2022/12/22 13:10:57;;;;;;;50.98;29.23;;;;;;;5.29;97.49;99741.81;1736913;80;27447;-74
2022/12/22 13:13:29;;;;;;;41.53;24.70;;;;;;;5.29;97.54;99728.55;1750089;80;25592;-74
2022/12/22 13:16:07;;;;;;;44.03;25.72;;;;;;;5.28;97.58;99717.61;1742429;80;25699;-74
2022/12/22 13:18:42;;;;;;;48.38;28.95;;;;;;;5.27;97.55;99735.86;1743237;80;26540;-74
2022/12/22 13:21:16;;;;;;;58.73;33.83;;;;;;;5.25;97.67;99726.75;1737901;80;25900;-74
2022/12/22 13:24:00;;;;;;;78.17;41.50;;;;;;;5.24;97.70;99734.37;1723652;81;27473;-74
2022/12/22 13:26:33;;;;;;;77.70;40.95;;;;;;;5.25;97.72;99727.23;1705284;82;25805;-74
2022/12/22 13:29:14;;;;;;;83.25;42.43;;;;;;;5.24;97.86;99711.80;1682311;83;26274;-74
2022/12/22 13:31:45;;;;;;;74.77;38.55;;;;;;;5.26;98.00;99715.63;1723160;81;26517;-82
2022/12/22 13:34:23;;;;;;;104.50;57.08;;;;;;;5.25;97.96;99708.16;1717442;81;25769;-83
2022/12/22 13:36:50;;;;;;;94.70;46.98;;;;;;;5.26;98.08;99723.59;1740021;80;27468;-82
2022/12/22 13:39:18;;;;;;;92.22;51.13;;;;;;;5.25;98.11;99722.77;1747600;80;25799;-83
2022/12/22 13:41:47;;;;;;;91.12;52.43;;;;;;;5.25;98.14;99719.27;1739007;80;25790;-83
2022/12/22 13:44:18;;;;;;;76.55;45.35;;;;;;;5.24;98.17;99713.63;1739250;80;25938;-82
2022/12/22 13:46:45;;;;;;;59.35;35.08;;;;;;;5.24;98.26;99707.82;1755222;80;26058;-84
2022/12/22 13:49:15;;;;;;;55.05;31.10;;;;;;;5.25;98.29;99698.88;1744227;81;27484;-84
2022/12/22 13:51:42;;;;;;;57.90;32.48;;;;;;;5.24;98.29;99705.66;1720688;81;25820;-84
2022/12/22 13:54:12;;;;;;;52.13;28.07;;;;;;;5.22;98.34;99695.72;1720395;81;25934;-83
2022/12/22 13:56:46;;;;;;;50.08;27.37;;;;;;;5.21;98.43;99695.41;1730240;81;26551;-87
2022/12/22 13:59:32;;;;;;;51.95;28.85;;;;;;;5.19;98.48;99690.28;1717733;81;25898;-85
2022/12/22 14:02:07;;;;;;;51.45;27.65;;;;;;;5.21;98.57;99696.73;1720140;81;27475;-85
2022/12/22 14:04:38;;;;;;;53.63;29.92;;;;;;;5.21;98.67;99684.30;1714378;82;26048;-84
2022/12/22 14:07:18;;;;;;;66.97;36.28;;;;;;;5.24;98.75;99680.44;1738366;80;26313;-75
2022/12/22 14:09:50;;;;;;;57.93;32.28;;;;;;;5.26;98.69;99683.25;1742987;80;25801;-76
2022/12/22 14:12:27;;;;;;;59.25;32.17;;;;;;;5.29;98.72;99678.09;1747702;80;25874;-76
2022/12/22 14:14:56;;;;;;;71.00;39.60;;;;;;;5.30;98.63;99675.25;1743494;80;28362;-76
2022/12/22 14:17:39;;;;;;;57.43;32.78;;;;;;;5.31;98.60;99670.78;1746665;81;25763;-76
2022/12/22 14:20:20;;;;;;;76.15;39.58;;;;;;;5.32;98.64;99675.10;1746994;80;25882;-75
2022/12/22 14:22:57;;;;;;;72.62;40.75;;;;;;;5.29;98.44;99678.09;1705070;82;25931;-76
2022/12/22 14:25:37;;;;;;;81.80;45.90;;;;;;;5.28;98.60;99671.15;1699376;83;25952;-76
2022/12/22 14:28:08;;;;;;;69.80;38.53;;;;;;;5.31;98.74;99675.59;1700030;83;27469;-76
2022/12/22 14:30:40;;;;;;;55.70;31.77;;;;;;;5.34;98.70;99669.11;1696661;82;25921;-76
2022/12/22 14:33:29;;;;;;;51.53;30.43;;;;;;;5.36;98.69;99667.94;1737607;81;25782;-76
2022/12/22 14:36:22;;;;;;;52.60;28.92;;;;;;;5.37;98.59;99659.45;1743201;80;25805;-75
2022/12/22 14:38:53;;;;;;;53.33;29.98;;;;;;;5.39;98.60;99656.11;1746371;80;25931;-75
2022/12/22 14:41:42;;;;;;;51.53;28.27;;;;;;;5.42;98.58;99655.77;1680752;84;27361;-75
2022/12/22 14:44:24;;;;;;;57.13;31.10;;;;;;;5.44;98.45;99658.58;1699729;83;25928;-75
2022/12/22 14:47:16;;;;;;;55.17;30.75;;;;;;;5.45;98.29;99656.77;1718241;81;25746;-76
2022/12/22 14:49:53;;;;;;;84.85;46.35;;;;;;;5.46;98.34;99663.71;1717913;81;25796;-88
2022/12/22 14:52:49;;;;;;;64.67;36.53;;;;;;;5.49;98.17;99650.89;1724687;81;25759;-76
2022/12/22 14:55:41;;;;;;;56.85;32.38;;;;;;;5.51;98.08;99649.41;1711432;81;28295;-77
2022/12/22 14:58:13;;;;;;;58.35;31.62;;;;;;;5.53;97.91;99651.88;1700029;81;44600;-77
2022/12/22 15:00:45;;;;;;;53.30;29.40;;;;;;;5.52;97.81;99652.38;1715030;81;25353;-91
2022/12/22 15:03:34;;;;;;;59.40;33.80;;;;;;;5.53;97.82;99650.05;1743925;81;26679;-86
2022/12/22 15:06:30;;;;;;;61.48;36.10;;;;;;;5.53;97.77;99647.40;1701854;84;26141;-86
2022/12/22 15:09:18;;;;;;;61.48;34.18;;;;;;;5.51;97.76;99642.77;1690392;84;27547;-90
2022/12/22 15:11:48;;;;;;;54.55;30.40;;;;;;;5.50;97.66;99638.45;1719620;81;26318;-79
2022/12/22 15:14:19;;;;;;;55.67;32.83;;;;;;;5.50;97.67;99631.80;1752338;80;25354;-81
2022/12/22 15:16:46;;;;;;;51.88;31.20;;;;;;;5.52;97.71;99641.75;1759388;80;26562;-88
2022/12/22 15:19:17;;;;;;;56.60;33.13;;;;;;;5.53;97.68;99643.91;1758733;80;25308;-83
2022/12/22 15:21:44;;;;;;;56.45;31.73;;;;;;;5.53;97.57;99636.78;1765596;80;28238;-84
2022/12/22 15:24:16;;;;;;;58.63;32.45;;;;;;;5.54;97.65;99635.75;1759081;80;26113;-83
2022/12/22 15:26:43;;;;;;;54.85;32.25;;;;;;;5.57;97.58;99633.25;1761691;80;25769;-84
2022/12/22 15:29:10;;;;;;;66.20;36.08;;;;;;;5.58;97.60;99629.61;1759163;81;26463;-83
2022/12/22 15:31:38;;;;;;;62.43;35.50;;;;;;;5.59;97.60;99621.94;1747370;81;25322;-86